NCAR-RAP Real-Time Weather Data

Output produced by METARs form (21 August 2017  04:39 UTC)
found at http://weather.rap.ucar.edu/surface/
 
Conditions at: KPGD observed 21 August 2017  03:53 UTC
Temperature: 26.1°C (79°F)
Dewpoint: 25.0°C (77°F) [RH = 94%]
Pressure (altimeter): 30.12 inches Hg (1020.1 mb)
[Sea-level pressure: 1020.1 mb]
Winds: from the NE (50 degrees) at 3 MPH (3 knots; 1.6 m/s)
Visibility: 10 or more miles (16+ km)
Ceiling: at least 12,000 feet AGL
Clouds: sky clear below 12,000 feet AGL
Present Weather: automated observation with no human augmentation;
there may or may not be significant weather present at this time
KPGD 210353Z AUTO 05003KT 10SM CLR 26/25 A3012 RMK AO2 RAB0254E25 SLP201 P0001 T02610250

Conditions at: KPGD observed 21 August 2017  02:53 UTC
Temperature: 26.1°C (79°F)
Dewpoint: 25.0°C (77°F) [RH = 94%]
Pressure (altimeter): 30.11 inches Hg (1019.7 mb)
[Sea-level pressure: 1019.6 mb]
Winds: from the E (90 degrees) at 3 MPH (3 knots; 1.6 m/s)
Visibility: 10 or more miles (16+ km)
Ceiling: at least 12,000 feet AGL
Clouds: few clouds at 10000 feet AGL
Present Weather: automated observation with no human augmentation;
there may or may not be significant weather present at this time
KPGD 210253Z AUTO 09003KT 10SM FEW100 26/25 A3011 RMK AO2 RAE14 SLP196 P0000 60001 T02610250 53020

Conditions at: KPGD observed 21 August 2017  01:53 UTC
Temperature: 26.1°C (79°F)
Dewpoint: 24.4°C (76°F) [RH = 90%]
Pressure (altimeter): 30.07 inches Hg (1018.4 mb)
[Sea-level pressure: 1018.2 mb]
Winds: from the E (80 degrees) at 3 MPH (3 knots; 1.6 m/s)
Visibility: 10 or more miles (16+ km)
Ceiling: at least 12,000 feet AGL
Clouds: sky clear below 12,000 feet AGL
Present Weather: -RA  (light rain)
KPGD 210153Z AUTO 08003KT 10SM -RA CLR 26/24 A3007 RMK AO2 RAB34 SLP182 P0000 T02610244

Conditions at: KPGD observed 21 August 2017  00:53 UTC
Temperature: 26.1°C (79°F)
Dewpoint: 25.0°C (77°F) [RH = 94%]
Pressure (altimeter): 30.07 inches Hg (1018.4 mb)
[Sea-level pressure: 1018.2 mb]
Winds: from the ESE (110 degrees) at 3 MPH (3 knots; 1.6 m/s)
Visibility: 10 or more miles (16+ km)
Ceiling: at least 12,000 feet AGL
Clouds: sky clear below 12,000 feet AGL
Present Weather: automated observation with no human augmentation;
there may or may not be significant weather present at this time
KPGD 210053Z AUTO 11003KT 10SM CLR 26/25 A3007 RMK AO2 RAE25 SLP182 P0001 T02610250

Conditions at: KPGD observed 20 August 2017  23:53 UTC
Temperature: 25.6°C (78°F)
Dewpoint: 24.4°C (76°F) [RH = 93%]
Pressure (altimeter): 30.05 inches Hg (1017.7 mb)
[Sea-level pressure: 1017.6 mb]
Winds: from the ENE (60 degrees) at 6 MPH (5 knots; 2.6 m/s)
Visibility: 10 or more miles (16+ km)
Ceiling: at least 12,000 feet AGL
Clouds: sky clear below 12,000 feet AGL
Present Weather: -RA  (light rain)
KPGD 202353Z 06005KT 10SM -RA CLR 26/24 A3005 RMK AO2 RAB20 SLP176 P0001 60001 T02560244 10328 20250 53007

Conditions at: KPGD observed 20 August 2017  22:53 UTC
Temperature: 25.6°C (78°F)
Dewpoint: 23.9°C (75°F) [RH = 90%]
Pressure (altimeter): 30.03 inches Hg (1017.0 mb)
[Sea-level pressure: 1016.9 mb]
Winds: from the NE (40 degrees) at 5 MPH (4 knots; 2.1 m/s)
Visibility: 10 or more miles (16+ km)
Ceiling: at least 12,000 feet AGL
Clouds: sky clear below 12,000 feet AGL
Present Weather: no significant weather observed at this time
KPGD 202253Z 04004KT 10SM CLR 26/24 A3003 RMK AO2 LTG DSNT SW SLP169 T02560239

Conditions at: KPGD observed 20 August 2017  22:04 UTC
Temperature: 25.6°C (78°F)
Dewpoint: 23.3°C (74°F) [RH = 87%]
Pressure (altimeter): 30.02 inches Hg (1016.7 mb)
Winds: from the E (100 degrees) at 10 MPH (9 knots; 4.7 m/s)
Visibility: 10 or more miles (16+ km)
Ceiling: at least 12,000 feet AGL
Clouds: few clouds at 11000 feet AGL
Present Weather:
SOME DATA ABOVE MAY BE INACCURATE!!!
"$" is an indication the sensor requires maintenance
KPGD 202204Z 10009KT 10SM FEW110 26/23 A3002 RMK AO2 LTG DSNT S-NW T02560233 $

Conditions at: KPGD observed 20 August 2017  21:53 UTC
Temperature: 25.0°C (77°F)
Dewpoint: 23.3°C (74°F) [RH = 90%]
Pressure (altimeter): 30.01 inches Hg (1016.3 mb)
[Sea-level pressure: 1016.3 mb]
Winds: from the ESE (110 degrees) at 9 MPH (8 knots; 4.2 m/s)
Visibility: 10 or more miles (16+ km)
Ceiling: at least 12,000 feet AGL
Clouds: few clouds at 4800 feet AGL
scattered clouds at 9000 feet AGL
scattered clouds at 12000 feet AGL
Present Weather: VCTS  (thunderstorm in vicinity)
SOME DATA ABOVE MAY BE INACCURATE!!!
"$" is an indication the sensor requires maintenance
KPGD 202153Z 11008KT 10SM VCTS FEW048 SCT090 SCT120 25/23 A3001 RMK AO2 LTG DSNT S-NW RAE49 TSB24E40 SLP163 P0000 T02500233 $

Conditions at: KPGD observed 20 August 2017  21:46 UTC
Temperature: 25.0°C (77°F)
Dewpoint: 23.3°C (74°F) [RH = 90%]
Pressure (altimeter): 30.01 inches Hg (1016.3 mb)
Winds: from the E (100 degrees) at 10 MPH (9 knots; 4.7 m/s)
Visibility: 10 or more miles (16+ km)
Ceiling: 11000 feet AGL
Clouds: few clouds at 5000 feet AGL
scattered clouds at 8000 feet AGL
broken clouds at 11000 feet AGL
Present Weather: VCTS -RA  (thunderstorm in vicinity, light rain)
SOME DATA ABOVE MAY BE INACCURATE!!!
"$" is an indication the sensor requires maintenance
KPGD 202146Z 10009KT 10SM VCTS -RA FEW050 SCT080 BKN110 25/23 A3001 RMK AO2 LTG DSNT S-NW TSB24E40 P0000 T02500233 $

Conditions at: KPGD observed 20 August 2017  21:24 UTC
Temperature: 25.0°C (77°F)
Dewpoint: 23.3°C (74°F) [RH = 90%]
Pressure (altimeter): 30.02 inches Hg (1016.7 mb)
Winds: from the E (100 degrees) at 15 MPH (13 knots; 6.8 m/s)
Visibility: 8 miles (13 km)
Ceiling: 7000 feet AGL
Clouds: scattered clouds at 2200 feet AGL
broken clouds at 7000 feet AGL
overcast cloud deck at 11000 feet AGL
Present Weather: -TSRA  (light rain associated with thunderstorm(s))
SOME DATA ABOVE MAY BE INACCURATE!!!
"$" is an indication the sensor requires maintenance
KPGD 202124Z 10013KT 8SM -TSRA SCT022 BKN070 OVC110 25/23 A3002 RMK AO2 LTG DSNT N AND S AND SW TSB24 P0000 T02500233 $

Conditions at: KPGD observed 20 August 2017  21:05 UTC
Temperature: 27.2°C (81°F)
Dewpoint: 23.3°C (74°F) [RH = 79%]
Pressure (altimeter): 30.02 inches Hg (1016.7 mb)
Winds: from the E (100 degrees) at 17 MPH (15 knots; 7.8 m/s)
gusting to 25 MPH (22 knots; 11.4 m/s)
Visibility: 10 or more miles (16+ km)
Ceiling: 2800 feet AGL
Clouds: scattered clouds at 900 feet AGL
broken clouds at 2800 feet AGL
overcast cloud deck at 9000 feet AGL
Present Weather: VCTS -RA  (thunderstorm in vicinity, light rain)
SOME DATA ABOVE MAY BE INACCURATE!!!
"$" is an indication the sensor requires maintenance
KPGD 202105Z 10015G22KT 10SM VCTS -RA SCT009 BKN028 OVC090 27/23 A3002 RMK AO2 LTG DSNT N AND E P0000 T02720233 $

Conditions at: KPGD observed 20 August 2017  20:53 UTC
Temperature: 28.3°C (83°F)
Dewpoint: 22.8°C (73°F) [RH = 72%]
Pressure (altimeter): 30.03 inches Hg (1017.0 mb)
[Sea-level pressure: 1016.9 mb]
Winds: from the E (100 degrees) at 22 MPH (19 knots; 9.9 m/s)
gusting to 36 MPH (31 knots; 16.1 m/s)
Visibility: 10 or more miles (16+ km)
Ceiling: 6500 feet AGL
Clouds: few clouds at 2200 feet AGL
scattered clouds at 3000 feet AGL
broken clouds at 6500 feet AGL
Present Weather: VCTS -RA  (thunderstorm in vicinity, light rain)
SOME DATA ABOVE MAY BE INACCURATE!!!
"$" is an indication the sensor requires maintenance
KPGD 202053Z 10019G31KT 10SM VCTS -RA FEW022 SCT030 BKN065 28/23 A3003 RMK AO2 PK WND 08031/2049 LTG DSNT N AND E RAB53 PRESRR SLP169 P0000 60000 T02830228 55006 $

Conditions at: KPGD observed 20 August 2017  20:45 UTC
Temperature: 32.2°C (90°F)
Dewpoint: 23.9°C (75°F) [RH = 62%]
Pressure (altimeter): 30.01 inches Hg (1016.3 mb)
Winds: from the ENE (70 degrees) at 20 MPH (17 knots; 8.8 m/s)
Visibility: 10 or more miles (16+ km)
Ceiling: at least 12,000 feet AGL
Clouds: few clouds at 6500 feet AGL
scattered clouds at 9000 feet AGL
Present Weather: VCTS  (thunderstorm in vicinity)
SOME DATA ABOVE MAY BE INACCURATE!!!
"$" is an indication the sensor requires maintenance
KPGD 202045Z 07017KT 10SM VCTS FEW065 SCT090 32/24 A3001 RMK AO2 LTG DSNT N-SE T03220239 $

Conditions at: KPGD observed 20 August 2017  20:15 UTC
Temperature: 32.2°C (90°F)
Dewpoint: 25.0°C (77°F) [RH = 66%]
Pressure (altimeter): 30.00 inches Hg (1016.0 mb)
Winds: from the ENE (60 degrees) at 14 MPH (12 knots; 6.2 m/s)
gusting to 20 MPH (17 knots; 8.8 m/s)
Visibility: 10 or more miles (16+ km)
Ceiling: at least 12,000 feet AGL
Clouds: scattered clouds at 3500 feet AGL
Present Weather:
SOME DATA ABOVE MAY BE INACCURATE!!!
"$" is an indication the sensor requires maintenance
KPGD 202015Z 06012G17KT 10SM SCT035 32/25 A3000 RMK AO2 LTG DSNT N-SE T03220250 $

Conditions at: KPGD observed 20 August 2017  20:00 UTC
Temperature: 32.2°C (90°F)
Dewpoint: 23.9°C (75°F) [RH = 62%]
Pressure (altimeter): 30.01 inches Hg (1016.3 mb)
Winds: from the NE (50 degrees) at 14 MPH (12 knots; 6.2 m/s)
Visibility: 10 or more miles (16+ km)
Ceiling: at least 12,000 feet AGL
Clouds: scattered clouds at 3500 feet AGL
Present Weather: VCTS  (thunderstorm in vicinity)
SOME DATA ABOVE MAY BE INACCURATE!!!
"$" is an indication the sensor requires maintenance
KPGD 202000Z 05012KT 10SM VCTS SCT035 32/24 A3001 RMK AO2 LTG DSNT NE AND SE T03220239 $

Conditions at: KPGD observed 20 August 2017  19:53 UTC
Temperature: 32.2°C (90°F)
Dewpoint: 24.4°C (76°F) [RH = 64%]
Pressure (altimeter): 30.01 inches Hg (1016.3 mb)
[Sea-level pressure: 1016.3 mb]
Winds: from the NE (40 degrees) at 13 MPH (11 knots; 5.7 m/s)
Visibility: 10 or more miles (16+ km)
Ceiling: at least 12,000 feet AGL
Clouds: sky clear below 12,000 feet AGL
Present Weather:
SOME DATA ABOVE MAY BE INACCURATE!!!
"$" is an indication the sensor requires maintenance
KPGD 201953Z 04011KT 10SM CLR 32/24 A3001 RMK AO2 SLP163 T03220244 $

Conditions at: KPGD observed 20 August 2017  19:00 UTC
Temperature: 30.6°C (87°F)
Dewpoint: 23.3°C (74°F) [RH = 65%]
Pressure (altimeter): 30.03 inches Hg (1017.0 mb)
Winds: from the ENE (70 degrees) at 14 MPH (12 knots; 6.2 m/s)
Visibility: 10 or more miles (16+ km)
Ceiling: 4500 feet AGL
Clouds: few clouds at 200 feet AGL
scattered clouds at 3400 feet AGL
broken clouds at 4500 feet AGL
Present Weather:
SOME DATA ABOVE MAY BE INACCURATE!!!
"$" is an indication the sensor requires maintenance
KPGD 201900Z 07012KT 10SM FEW002 SCT034 BKN045 31/23 A3003 RMK AO2 LTG DSNT N T03060233 $

Conditions at: KPGD observed 20 August 2017  18:53 UTC
Temperature: 32.8°C (91°F)
Dewpoint: 24.4°C (76°F) [RH = 61%]
Pressure (altimeter): 30.03 inches Hg (1017.0 mb)
[Sea-level pressure: 1016.9 mb]
Winds: from the E (80 degrees) at 14 MPH (12 knots; 6.2 m/s)
gusting to 22 MPH (19 knots; 9.9 m/s)
Visibility: 10 or more miles (16+ km)
Ceiling: at least 12,000 feet AGL
Clouds: scattered clouds at 3000 feet AGL
Present Weather:
SOME DATA ABOVE MAY BE INACCURATE!!!
"$" is an indication the sensor requires maintenance
KPGD 201853Z 08012G19KT 10SM SCT030 33/24 A3003 RMK AO2 SLP169 T03280244 $

Conditions at: KPGD observed 20 August 2017  17:53 UTC
Temperature: 31.1°C (88°F)
Dewpoint: 24.4°C (76°F) [RH = 68%]
Pressure (altimeter): 30.05 inches Hg (1017.7 mb)
[Sea-level pressure: 1017.5 mb]
Winds: from the ESE (120 degrees) at 8 MPH (7 knots; 3.6 m/s)
Visibility: 10 or more miles (16+ km)
Ceiling: at least 12,000 feet AGL
Clouds: scattered clouds at 2700 feet AGL
scattered clouds at 3300 feet AGL
Present Weather: no significant weather observed at this time
KPGD 201753Z 12007KT 10SM SCT027 SCT033 31/24 A3005 RMK AO2 SLP175 T03110244 10311 20250 51001

Conditions at: KPGD observed 20 August 2017  16:53 UTC
Temperature: 30.6°C (87°F)
Dewpoint: 24.4°C (76°F) [RH = 70%]
Pressure (altimeter): 30.05 inches Hg (1017.7 mb)
[Sea-level pressure: 1017.5 mb]
Winds: from the E (100 degrees) at 9 MPH (8 knots; 4.2 m/s)
Visibility: 10 or more miles (16+ km)
Ceiling: at least 12,000 feet AGL
Clouds: few clouds at 2500 feet AGL
Present Weather: no significant weather observed at this time
KPGD 201653Z 10008KT 10SM FEW025 31/24 A3005 RMK AO2 SLP175 T03060244

Conditions at: KPGD observed 20 August 2017  15:53 UTC
Temperature: 30.6°C (87°F)
Dewpoint: 24.4°C (76°F) [RH = 70%]
Pressure (altimeter): 30.06 inches Hg (1018.0 mb)
[Sea-level pressure: 1017.8 mb]
Winds: from the ENE (70 degrees) at 8 MPH (7 knots; 3.6 m/s)
Visibility: 10 or more miles (16+ km)
Ceiling: at least 12,000 feet AGL
Clouds: sky clear below 12,000 feet AGL
Present Weather: no significant weather observed at this time
KPGD 201553Z 07007KT 10SM CLR 31/24 A3006 RMK AO2 SLP178 T03060244

Conditions at: KPGD observed 20 August 2017  14:53 UTC
Temperature: 31.1°C (88°F)
Dewpoint: 24.4°C (76°F) [RH = 68%]
Pressure (altimeter): 30.05 inches Hg (1017.7 mb)
[Sea-level pressure: 1017.5 mb]
Winds: variable direction winds at 6 MPH (5 knots; 2.6 m/s)
Visibility: 10 or more miles (16+ km)
Ceiling: at least 12,000 feet AGL
Clouds: sky clear below 12,000 feet AGL
Present Weather: no significant weather observed at this time
KPGD 201453Z VRB05KT 10SM CLR 31/24 A3005 RMK AO2 SLP175 T03110244 51007

Conditions at: KPGD observed 20 August 2017  13:53 UTC
Temperature: 29.4°C (85°F)
Dewpoint: 25.0°C (77°F) [RH = 77%]
Pressure (altimeter): 30.04 inches Hg (1017.4 mb)
[Sea-level pressure: 1017.2 mb]
Winds: from the NE (50 degrees) at 7 MPH (6 knots; 3.1 m/s)
Visibility: 10 or more miles (16+ km)
Ceiling: at least 12,000 feet AGL
Clouds: sky clear below 12,000 feet AGL
Present Weather: no significant weather observed at this time
KPGD 201353Z 05006KT 10SM CLR 29/25 A3004 RMK AO2 SLP172 T02940250

Conditions at: KPGD observed 20 August 2017  12:53 UTC
Temperature: 27.2°C (81°F)
Dewpoint: 25.0°C (77°F) [RH = 88%]
Pressure (altimeter): 30.04 inches Hg (1017.4 mb)
[Sea-level pressure: 1017.2 mb]
Winds: from the NE (50 degrees) at 5 MPH (4 knots; 2.1 m/s)
Visibility: 10 or more miles (16+ km)
Ceiling: at least 12,000 feet AGL
Clouds: sky clear below 12,000 feet AGL
Present Weather: no significant weather observed at this time
KPGD 201253Z 05004KT 10SM CLR 27/25 A3004 RMK AO2 SLP172 T02720250

Conditions at: KPGD observed 20 August 2017  11:53 UTC
Temperature: 25.0°C (77°F)
Dewpoint: 24.4°C (76°F) [RH = 96%]
Pressure (altimeter): 30.03 inches Hg (1017.0 mb)
[Sea-level pressure: 1016.7 mb]
Winds: from the ENE (60 degrees) at 5 MPH (4 knots; 2.1 m/s)
Visibility: 10 or more miles (16+ km)
Ceiling: at least 12,000 feet AGL
Clouds: sky clear below 12,000 feet AGL
Present Weather: no significant weather observed at this time
KPGD 201153Z 06004KT 10SM CLR 25/24 A3003 RMK AO2 SLP167 T02500244 10267 20244 53016

Conditions at: KPGD observed 20 August 2017  11:02 UTC
Temperature: 24.4°C (76°F)
Dewpoint: 23.9°C (75°F) [RH = 97%]
Pressure (altimeter): 30.02 inches Hg (1016.7 mb)
Winds: from the ENE (70 degrees) at 3 MPH (3 knots; 1.6 m/s)
Visibility: 9 miles (14 km)
Ceiling: at least 12,000 feet AGL
Clouds: few clouds at 600 feet AGL
Present Weather: no significant weather observed at this time
KPGD 201102Z 07003KT 9SM FEW006 24/24 A3002 RMK AO2 T02440239

Conditions at: KPGD observed 20 August 2017  10:53 UTC
Temperature: 24.4°C (76°F)
Dewpoint: 23.9°C (75°F) [RH = 97%]
Pressure (altimeter): 30.01 inches Hg (1016.3 mb)
[Sea-level pressure: 1016.3 mb]
Winds: from the E (80 degrees) at 5 MPH (4 knots; 2.1 m/s)
Visibility: 9 miles (14 km)
Ceiling: at least 12,000 feet AGL
Clouds: sky clear below 12,000 feet AGL
Present Weather: automated observation with no human augmentation;
there may or may not be significant weather present at this time
KPGD 201053Z AUTO 08004KT 9SM CLR 24/24 A3001 RMK AO2 SLP163 T02440239

Conditions at: KPGD observed 20 August 2017  09:53 UTC
Temperature: 24.4°C (76°F)
Dewpoint: 23.9°C (75°F) [RH = 97%]
Pressure (altimeter): 29.98 inches Hg (1015.3 mb)
[Sea-level pressure: 1015.4 mb]
Winds: from the ENE (70 degrees) at 6 MPH (5 knots; 2.6 m/s)
Visibility: 9 miles (14 km)
Ceiling: at least 12,000 feet AGL
Clouds: sky clear below 12,000 feet AGL
Present Weather: automated observation with no human augmentation;
there may or may not be significant weather present at this time
KPGD 200953Z AUTO 07005KT 9SM CLR 24/24 A2998 RMK AO2 SLP154 T02440239

Conditions at: KPGD observed 20 August 2017  08:53 UTC
Temperature: 25.0°C (77°F)
Dewpoint: 23.9°C (75°F) [RH = 94%]
Pressure (altimeter): 29.98 inches Hg (1015.3 mb)
[Sea-level pressure: 1015.2 mb]
Winds: from the ENE (70 degrees) at 5 MPH (4 knots; 2.1 m/s)
Visibility: 10 or more miles (16+ km)
Ceiling: at least 12,000 feet AGL
Clouds: sky clear below 12,000 feet AGL
Present Weather: automated observation with no human augmentation;
there may or may not be significant weather present at this time
KPGD 200853Z AUTO 07004KT 10SM CLR 25/24 A2998 RMK AO2 SLP152 T02500239 55007

Conditions at: KPGD observed 20 August 2017  07:53 UTC
Temperature: 25.0°C (77°F)
Dewpoint: 23.9°C (75°F) [RH = 94%]
Pressure (altimeter): 29.98 inches Hg (1015.3 mb)
[Sea-level pressure: 1015.1 mb]
Winds: from the N (360 degrees) at 3 MPH (3 knots; 1.6 m/s)
Visibility: 10 or more miles (16+ km)
Ceiling: at least 12,000 feet AGL
Clouds: sky clear below 12,000 feet AGL
Present Weather: automated observation with no human augmentation;
there may or may not be significant weather present at this time
KPGD 200753Z AUTO 36003KT 10SM CLR 25/24 A2998 RMK AO2 SLP151 T02500239

Conditions at: KPGD observed 20 August 2017  06:53 UTC
Temperature: 25.6°C (78°F)
Dewpoint: 23.9°C (75°F) [RH = 90%]
Pressure (altimeter): 29.98 inches Hg (1015.3 mb)
[Sea-level pressure: 1015.1 mb]
Winds: calm
Visibility: 10 or more miles (16+ km)
Ceiling: at least 12,000 feet AGL
Clouds: sky clear below 12,000 feet AGL
Present Weather: automated observation with no human augmentation;
there may or may not be significant weather present at this time
KPGD 200653Z AUTO 00000KT 10SM CLR 26/24 A2998 RMK AO2 SLP151 T02560239

Conditions at: KPGD observed 20 August 2017  05:53 UTC
Temperature: 26.7°C (80°F)
Dewpoint: 24.4°C (76°F) [RH = 87%]
Pressure (altimeter): 30.00 inches Hg (1016.0 mb)
[Sea-level pressure: 1015.9 mb]
Winds: calm
Visibility: 10 or more miles (16+ km)
Ceiling: at least 12,000 feet AGL
Clouds: sky clear below 12,000 feet AGL
Present Weather: automated observation with no human augmentation;
there may or may not be significant weather present at this time
KPGD 200553Z AUTO 00000KT 10SM CLR 27/24 A3000 RMK AO2 SLP159 T02670244 10328 20267 58002

Conditions at: KPGD observed 20 August 2017  04:53 UTC
Temperature: 27.2°C (81°F)
Dewpoint: 23.3°C (74°F) [RH = 79%]
Pressure (altimeter): 30.02 inches Hg (1016.7 mb)
[Sea-level pressure: 1016.5 mb]
Winds: from the SE (140 degrees) at 3 MPH (3 knots; 1.6 m/s)
Visibility: 10 or more miles (16+ km)
Ceiling: at least 12,000 feet AGL
Clouds: sky clear below 12,000 feet AGL
Present Weather: automated observation with no human augmentation;
there may or may not be significant weather present at this time
KPGD 200453Z AUTO 14003KT 10SM CLR 27/23 A3002 RMK AO2 SLP165 T02720233 403500217